createdAt,value
2023-05-17T00:01:04.296Z,1.70
2023-05-17T00:04:06.310Z,1.77
2023-05-17T00:07:08.380Z,2.17
2023-05-17T00:10:10.748Z,1.80
2023-05-17T00:13:12.646Z,2.00
2023-05-17T00:16:14.666Z,2.10
2023-05-17T00:19:16.760Z,1.90
2023-05-17T00:22:18.780Z,1.80
2023-05-17T00:25:20.675Z,1.90
2023-05-17T00:28:22.571Z,1.60
2023-05-17T00:31:26.025Z,1.73
2023-05-17T00:34:28.337Z,1.70
2023-05-17T00:37:30.246Z,1.95
2023-05-17T00:40:32.168Z,1.30
2023-05-17T00:43:34.498Z,1.90
2023-05-17T00:46:36.538Z,1.50
2023-05-17T00:49:38.617Z,1.60
2023-05-17T00:52:40.754Z,1.65
2023-05-17T00:55:46.383Z,1.67
2023-05-17T00:58:48.644Z,1.60
2023-05-17T01:01:51.652Z,1.52
2023-05-17T01:04:53.858Z,1.60
2023-05-17T01:07:55.869Z,1.80
2023-05-17T01:11:16.968Z,1.40
2023-05-17T01:14:48.450Z,1.70
2023-05-17T01:17:59.680Z,1.63
2023-05-17T01:21:07.480Z,1.70
2023-05-17T01:24:35.332Z,1.63
2023-05-17T01:27:41.425Z,1.55
2023-05-17T01:30:46.575Z,2.17
2023-05-17T01:33:48.756Z,1.80
2023-05-17T01:36:50.739Z,1.98
2023-05-17T01:39:52.860Z,1.50
2023-05-17T01:43:00.568Z,1.80
2023-05-17T01:46:28.659Z,1.80
2023-05-17T01:49:32.586Z,1.70
2023-05-17T01:52:51.525Z,1.40
2023-05-17T01:56:04.793Z,1.50
2023-05-17T01:59:07.463Z,1.52
2023-05-17T02:02:09.661Z,1.70
2023-05-17T02:05:11.879Z,1.20
2023-05-17T02:08:15.351Z,1.60
2023-05-17T02:11:17.470Z,1.38
2023-05-17T02:14:19.368Z,1.43
2023-05-17T02:17:21.301Z,1.40
2023-05-17T02:20:23.371Z,1.37
2023-05-17T02:23:27.414Z,1.70
2023-05-17T02:26:29.383Z,1.52
2023-05-17T02:29:31.868Z,1.77
2023-05-17T02:32:34.933Z,1.30
2023-05-17T02:35:37.011Z,1.52
2023-05-17T02:38:39.549Z,1.50
2023-05-17T02:41:41.462Z,1.40
2023-05-17T02:44:43.444Z,1.30
2023-05-17T02:47:45.479Z,1.50
2023-05-17T02:50:47.528Z,1.35
2023-05-17T02:53:49.518Z,1.43
2023-05-17T02:56:52.028Z,1.40
2023-05-17T02:59:53.929Z,1.33
2023-05-17T03:02:56.013Z,1.40
2023-05-17T03:06:02.685Z,1.40
2023-05-17T03:09:04.760Z,1.30
2023-05-17T03:12:08.612Z,1.42
2023-05-17T03:15:11.212Z,1.10
2023-05-17T03:18:13.239Z,1.20
2023-05-17T03:21:15.824Z,1.65
2023-05-17T03:27:20.663Z,1.48
2023-05-17T03:33:26.058Z,1.63
2023-05-17T03:36:28.561Z,1.52
2023-05-17T03:39:31.415Z,1.50
2023-05-17T03:42:33.557Z,1.30
2023-05-17T03:45:35.899Z,1.33
2023-05-17T03:48:37.863Z,1.35
2023-05-17T03:51:40.505Z,1.10
2023-05-17T03:54:42.589Z,1.40
2023-05-17T03:57:44.685Z,1.23
2023-05-17T04:00:46.852Z,1.30
2023-05-17T04:03:52.701Z,1.20
2023-05-17T04:06:56.729Z,1.23
2023-05-17T04:09:59.576Z,1.27
2023-05-17T04:13:04.172Z,1.17
2023-05-17T04:16:07.888Z,1.30
2023-05-17T04:19:11.323Z,1.10
2023-05-17T04:22:14.557Z,1.33
2023-05-17T04:25:18.610Z,1.50
2023-05-17T04:28:22.234Z,1.58
2023-05-17T04:31:24.243Z,1.02
2023-05-17T04:34:26.437Z,1.38
2023-05-17T04:37:31.091Z,1.27
2023-05-17T04:40:37.799Z,1.20
2023-05-17T04:43:40.459Z,1.15
2023-05-17T04:46:48.185Z,1.10
2023-05-17T04:49:51.577Z,1.08
2023-05-17T04:52:53.594Z,1.00
2023-05-17T04:55:55.796Z,0.90
2023-05-17T04:58:58.207Z,1.00
2023-05-17T05:02:00.278Z,1.10
2023-05-17T05:05:05.124Z,0.88
2023-05-17T05:08:09.538Z,0.82
2023-05-17T05:11:11.655Z,0.80
2023-05-17T05:14:13.812Z,1.00
2023-05-17T05:20:18.598Z,0.70
2023-05-17T05:23:20.701Z,0.80
2023-05-17T05:26:24.219Z,0.85
2023-05-17T05:29:26.889Z,0.82
2023-05-17T05:32:28.899Z,0.80
2023-05-17T05:35:31.065Z,0.82
2023-05-17T05:38:34.501Z,0.68
2023-05-17T05:41:37.158Z,1.00
2023-05-17T05:44:39.179Z,0.95
2023-05-17T05:47:41.296Z,1.00
2023-05-17T05:50:44.425Z,0.75
2023-05-17T05:53:46.511Z,0.80
2023-05-17T05:56:49.323Z,0.70
2023-05-17T05:59:53.649Z,0.60
2023-05-17T06:02:57.556Z,0.60
2023-05-17T06:05:59.733Z,0.82
2023-05-17T06:09:01.795Z,0.73
2023-05-17T06:12:03.842Z,0.85
2023-05-17T06:15:08.310Z,0.70
2023-05-17T06:18:10.418Z,0.80
2023-05-17T06:21:15.438Z,0.50
2023-05-17T06:24:19.255Z,0.60
2023-05-17T06:27:21.365Z,1.00
2023-05-17T06:30:23.196Z,0.73
2023-05-17T06:33:25.336Z,0.60
2023-05-17T06:36:27.359Z,0.80
2023-05-17T06:39:29.282Z,0.70
2023-05-17T06:42:31.251Z,0.80
2023-05-17T06:45:33.197Z,0.80
2023-05-17T06:48:35.272Z,0.60
2023-05-17T06:51:37.250Z,0.80
2023-05-17T06:54:39.224Z,0.65
2023-05-17T06:57:41.139Z,0.60
2023-05-17T07:00:43.133Z,0.70
2023-05-17T07:03:45.193Z,0.50
2023-05-17T07:06:47.323Z,0.70
2023-05-17T07:09:49.248Z,0.70
2023-05-17T07:12:51.236Z,0.70
2023-05-17T07:15:53.237Z,0.60
2023-05-17T07:18:55.218Z,0.63
2023-05-17T07:21:57.445Z,0.70
2023-05-17T07:28:01.287Z,0.70
2023-05-17T07:31:03.257Z,0.65
2023-05-17T07:34:05.359Z,0.52
2023-05-17T07:37:07.629Z,0.77
2023-05-17T07:40:10.164Z,0.70
2023-05-17T07:43:12.112Z,0.70
2023-05-17T07:46:13.975Z,0.63
2023-05-17T07:49:16.048Z,0.60
2023-05-17T07:52:18.046Z,0.82
2023-05-17T07:55:20.732Z,0.85
2023-05-17T07:58:22.717Z,0.68
2023-05-17T08:01:27.175Z,0.70
2023-05-17T08:04:29.217Z,0.73
2023-05-17T08:10:36.269Z,0.60
2023-05-17T08:13:38.504Z,0.70
2023-05-17T08:16:41.395Z,0.95
2023-05-17T08:19:43.493Z,0.85
2023-05-17T08:22:45.459Z,0.60
2023-05-17T08:25:47.349Z,0.70
2023-05-17T08:28:49.321Z,0.98
2023-05-17T08:31:52.898Z,0.90
2023-05-17T08:34:55.820Z,0.70
2023-05-17T08:37:57.910Z,0.73
2023-05-17T08:44:03.762Z,1.00
2023-05-17T08:47:07.170Z,1.00
2023-05-17T08:50:09.638Z,1.08
2023-05-17T08:53:12.274Z,1.00
2023-05-17T08:56:16.744Z,0.90
2023-05-17T08:59:21.536Z,1.00
2023-05-17T09:02:23.564Z,3.03
2023-05-17T09:08:30.234Z,1.20
2023-05-17T09:11:35.347Z,2.42
2023-05-17T09:14:37.296Z,1.30
2023-05-17T09:17:40.888Z,1.10
2023-05-17T09:20:43.474Z,1.15
2023-05-17T09:23:57.696Z,1.10
2023-05-17T09:27:07.320Z,0.85
2023-05-17T09:30:12.791Z,0.95
2023-05-17T09:33:17.644Z,0.88
2023-05-17T09:36:23.256Z,1.00
2023-05-17T09:39:25.582Z,0.80
2023-05-17T09:42:27.745Z,0.90
2023-05-17T09:45:32.495Z,0.70
2023-05-17T09:48:38.703Z,0.98
2023-05-17T09:51:43.605Z,0.80
2023-05-17T09:54:52.890Z,0.93
2023-05-17T09:58:03.404Z,0.90
2023-05-17T10:01:07.498Z,0.82
2023-05-17T10:04:11.168Z,1.00
2023-05-17T10:07:14.885Z,0.80
2023-05-17T10:10:18.355Z,0.93
2023-05-17T10:13:30.488Z,0.85
2023-05-17T10:19:38.020Z,0.90
2023-05-17T10:22:40.406Z,1.08
2023-05-17T10:25:43.242Z,0.90
2023-05-17T10:28:46.531Z,0.70
2023-05-17T10:31:51.371Z,1.20
2023-05-17T10:35:05.999Z,0.85
2023-05-17T10:38:13.718Z,0.90
2023-05-17T10:41:18.416Z,1.10
2023-05-17T10:44:20.767Z,0.80
2023-05-17T10:47:31.964Z,1.00
2023-05-17T10:50:41.142Z,0.90
2023-05-17T10:54:12.692Z,0.80
2023-05-17T10:57:39.034Z,0.82
2023-05-17T11:00:51.667Z,0.98
2023-05-17T11:03:55.679Z,1.00
2023-05-17T11:07:32.389Z,0.90
2023-05-17T11:10:36.216Z,0.90
2023-05-17T11:13:52.573Z,0.70
2023-05-17T11:16:58.318Z,0.85
2023-05-17T11:20:13.689Z,0.80
2023-05-17T11:23:22.744Z,0.60
2023-05-17T11:26:45.730Z,0.82
2023-05-17T11:29:50.328Z,0.88
2023-05-17T11:33:02.633Z,0.90
2023-05-17T11:36:07.591Z,0.90
2023-05-17T11:39:11.024Z,1.05
2023-05-17T11:42:25.282Z,0.70
2023-05-17T11:45:28.154Z,0.80
2023-05-17T11:48:31.121Z,0.80
2023-05-17T11:51:33.804Z,0.80
2023-05-17T11:54:40.340Z,0.80
2023-05-17T11:57:43.939Z,0.80
2023-05-17T12:00:46.424Z,0.80
2023-05-17T12:03:57.192Z,0.80
2023-05-17T12:06:59.215Z,0.90
2023-05-17T12:10:01.169Z,0.70
2023-05-17T12:13:04.081Z,0.88
2023-05-17T12:16:17.485Z,0.80
2023-05-17T12:19:22.346Z,0.70
2023-05-17T12:22:24.376Z,0.80
2023-05-17T12:25:28.099Z,0.70
2023-05-17T12:28:30.210Z,0.98
2023-05-17T12:31:39.509Z,1.10
2023-05-17T12:34:41.946Z,1.05
2023-05-17T12:37:44.302Z,0.90
2023-05-17T12:44:52.340Z,1.02
2023-05-17T12:47:54.353Z,1.00
2023-05-17T12:50:56.524Z,1.08
2023-05-17T12:54:01.269Z,0.80
2023-05-17T12:57:15.389Z,1.10
2023-05-17T13:00:18.236Z,0.80
2023-05-17T13:03:20.344Z,0.93
2023-05-17T13:06:22.665Z,0.70
2023-05-17T13:09:27.999Z,1.10
2023-05-17T13:12:29.987Z,0.90
2023-05-17T13:15:33.488Z,0.80
2023-05-17T13:18:49.098Z,1.23
2023-05-17T13:21:51.082Z,1.35
2023-05-17T13:24:53.862Z,1.17
2023-05-17T13:27:55.953Z,1.10
2023-05-17T13:30:57.887Z,1.17
2023-05-17T13:37:01.979Z,1.42
2023-05-17T13:40:04.925Z,1.52
2023-05-17T13:43:09.765Z,1.30
2023-05-17T13:46:11.865Z,1.50
2023-05-17T13:52:18.681Z,1.40
2023-05-17T13:55:20.808Z,1.67
2023-05-17T13:58:22.691Z,1.35
2023-05-17T14:07:28.879Z,1.50
2023-05-17T14:16:34.916Z,1.70
2023-05-17T14:22:38.846Z,1.90
2023-05-17T14:28:45.782Z,1.70
2023-05-17T14:31:47.826Z,1.73
2023-05-17T14:34:49.847Z,1.50
2023-05-17T14:37:51.789Z,1.50
2023-05-17T14:43:55.829Z,1.77
2023-05-17T14:46:57.745Z,1.70
2023-05-17T14:53:01.690Z,1.80
2023-05-17T14:56:03.610Z,1.55
2023-05-17T15:02:07.840Z,1.58
2023-05-17T15:08:14.337Z,1.70
2023-05-17T15:11:16.279Z,1.70
2023-05-17T15:17:27.129Z,1.70
2023-05-17T15:20:29.479Z,1.60
2023-05-17T15:23:31.704Z,1.40
2023-05-17T15:26:33.640Z,1.88
2023-05-17T15:32:40.329Z,1.63
2023-05-17T15:35:43.195Z,1.42
2023-05-17T15:38:45.276Z,1.17
2023-05-17T15:41:47.555Z,1.35
2023-05-17T15:44:49.484Z,1.40
2023-05-17T15:47:51.360Z,1.08
2023-05-17T15:50:53.289Z,1.20
2023-05-17T15:53:55.918Z,1.25
2023-05-17T15:56:57.909Z,1.25
2023-05-17T16:03:01.752Z,1.38
2023-05-17T16:09:06.814Z,1.10
2023-05-17T16:12:08.730Z,1.35
2023-05-17T16:15:10.813Z,1.15
2023-05-17T16:18:15.323Z,1.15
2023-05-17T16:21:17.440Z,1.25
2023-05-17T16:24:21.560Z,1.00
2023-05-17T16:27:23.570Z,1.20
2023-05-17T16:30:25.649Z,1.60
2023-05-17T16:36:29.661Z,1.40
2023-05-17T16:39:31.775Z,1.65
2023-05-17T16:42:33.659Z,1.50
2023-05-17T16:45:35.903Z,1.50
2023-05-17T16:48:37.868Z,1.50
2023-05-17T16:51:39.770Z,1.40
2023-05-17T16:54:42.197Z,1.80
2023-05-17T16:57:44.240Z,1.70
2023-05-17T17:00:46.237Z,1.70
2023-05-17T17:03:48.499Z,1.80
2023-05-17T17:09:53.286Z,1.80
2023-05-17T17:12:55.252Z,1.30
2023-05-17T17:15:57.250Z,1.90
2023-05-17T17:18:59.601Z,2.17
2023-05-17T17:22:05.521Z,2.47
2023-05-17T17:25:07.938Z,2.10
2023-05-17T17:28:09.906Z,2.20
2023-05-17T17:31:12.104Z,2.72
2023-05-17T17:34:14.078Z,2.33
2023-05-17T17:37:16.011Z,2.15
2023-05-17T17:40:18.465Z,2.10
2023-05-17T17:46:24.514Z,3.30
2023-05-17T17:49:26.428Z,4.57
2023-05-17T17:52:28.345Z,6.40
2023-05-17T17:55:30.382Z,5.57
2023-05-17T17:58:32.454Z,3.30
2023-05-17T18:01:37.491Z,3.05
2023-05-17T18:04:40.713Z,4.38
2023-05-17T18:07:42.790Z,4.07
2023-05-17T18:10:44.720Z,3.40
2023-05-17T18:13:47.051Z,3.65
2023-05-17T18:16:48.978Z,4.25
2023-05-17T18:19:51.116Z,4.38
2023-05-17T18:22:54.211Z,3.78
2023-05-17T18:25:56.113Z,4.55
2023-05-17T18:28:58.142Z,3.97
2023-05-17T18:32:01.745Z,3.70
2023-05-17T18:35:03.944Z,3.40
2023-05-17T18:38:05.980Z,4.32
2023-05-17T18:41:07.864Z,3.22
2023-05-17T18:44:09.764Z,2.97
2023-05-17T18:47:12.206Z,2.95
2023-05-17T18:53:16.149Z,3.88
2023-05-17T18:56:22.937Z,3.15
2023-05-17T18:59:24.913Z,4.13
2023-05-17T19:02:26.902Z,4.45
2023-05-17T19:05:28.932Z,5.15
2023-05-17T19:08:30.791Z,5.93
2023-05-17T19:11:33.101Z,5.90
2023-05-17T19:14:35.176Z,5.55
2023-05-17T19:17:37.403Z,4.78
2023-05-17T19:20:39.407Z,4.05
2023-05-17T19:23:41.322Z,3.65
2023-05-17T19:26:43.278Z,4.13
2023-05-17T19:29:46.457Z,4.10
2023-05-17T19:32:49.855Z,3.58
2023-05-17T19:35:52.184Z,3.67
2023-05-17T19:38:54.695Z,3.38
2023-05-17T19:41:56.717Z,3.40
2023-05-17T19:44:58.630Z,3.85
2023-05-17T19:48:00.982Z,3.25
2023-05-17T19:51:03.664Z,3.25
2023-05-17T19:57:08.158Z,2.42
2023-05-17T20:00:10.975Z,2.70
2023-05-17T20:03:12.931Z,2.72
2023-05-17T20:06:15.181Z,2.65
2023-05-17T20:09:17.147Z,2.40
2023-05-17T20:12:19.534Z,2.20
2023-05-17T20:15:22.827Z,2.80
2023-05-17T20:18:27.679Z,2.50
2023-05-17T20:21:30.040Z,2.88
2023-05-17T20:24:34.875Z,2.92
2023-05-17T20:27:36.895Z,2.97
2023-05-17T20:30:42.115Z,2.70
2023-05-17T20:33:44.619Z,3.58
2023-05-17T20:36:46.537Z,3.30
2023-05-17T20:39:48.935Z,3.65
2023-05-17T20:42:52.996Z,3.40
2023-05-17T20:45:55.400Z,3.60
2023-05-17T20:48:58.260Z,3.67
2023-05-17T20:55:06.568Z,3.72
2023-05-17T20:58:08.554Z,4.10
2023-05-17T21:01:10.782Z,4.47
2023-05-17T21:04:14.372Z,4.25
2023-05-17T21:07:17.502Z,4.10
2023-05-17T21:10:20.718Z,4.20
2023-05-17T21:13:24.039Z,4.18
2023-05-17T21:16:26.026Z,4.10
2023-05-17T21:19:28.069Z,4.00
2023-05-17T21:22:30.059Z,4.15
2023-05-17T21:25:32.339Z,4.28
2023-05-17T21:28:35.536Z,3.90
2023-05-17T21:31:37.743Z,3.78
2023-05-17T21:34:40.051Z,3.55
2023-05-17T21:37:42.397Z,3.78
2023-05-17T21:40:44.346Z,4.28
2023-05-17T21:43:46.312Z,3.80
2023-05-17T21:46:48.285Z,4.15
2023-05-17T21:49:50.537Z,3.83
2023-05-17T21:52:52.418Z,3.78
2023-05-17T21:56:02.242Z,3.53
2023-05-17T21:59:04.862Z,3.95
2023-05-17T22:02:08.654Z,3.90
2023-05-17T22:05:11.237Z,3.60
2023-05-17T22:08:13.162Z,4.07
2023-05-17T22:11:15.103Z,4.10
2023-05-17T22:14:17.029Z,3.60
2023-05-17T22:17:19.091Z,4.13
2023-05-17T22:20:23.920Z,4.10
2023-05-17T22:23:26.574Z,3.92
2023-05-17T22:26:28.614Z,4.10
2023-05-17T22:29:30.625Z,3.97
2023-05-17T22:32:32.618Z,4.07
2023-05-17T22:35:34.636Z,3.85
2023-05-17T22:38:36.562Z,3.95
2023-05-17T22:41:38.552Z,4.25
2023-05-17T22:44:40.491Z,3.90
2023-05-17T22:47:46.931Z,4.50
2023-05-17T22:50:49.105Z,4.20
2023-05-17T22:53:51.075Z,4.30
2023-05-17T22:56:53.044Z,4.10
2023-05-17T22:59:54.954Z,4.23
2023-05-17T23:02:57.044Z,4.30
2023-05-17T23:06:05.271Z,4.40
2023-05-17T23:09:07.265Z,4.30
2023-05-17T23:12:14.283Z,4.78
2023-05-17T23:15:16.380Z,4.32
2023-05-17T23:18:18.937Z,4.50
2023-05-17T23:21:21.032Z,4.57
2023-05-17T23:24:25.966Z,4.57
2023-05-17T23:27:27.978Z,4.53
2023-05-17T23:30:30.282Z,4.53
2023-05-17T23:33:33.970Z,4.63
2023-05-17T23:36:35.888Z,5.28
2023-05-17T23:39:37.802Z,4.83
2023-05-17T23:42:40.903Z,4.47
2023-05-17T23:45:42.779Z,4.65
2023-05-17T23:48:44.747Z,4.70
2023-05-17T23:51:46.652Z,4.90
2023-05-17T23:54:48.578Z,4.57
2023-05-17T23:57:50.451Z,4.63
